createdAt,value
2023-07-20T00:02:27.458Z,92.96
2023-07-20T00:07:31.824Z,94.96
2023-07-20T00:12:34.868Z,96.20
2023-07-20T00:17:38.439Z,97.00
2023-07-20T00:22:42.685Z,97.14
2023-07-20T00:27:45.545Z,96.99
2023-07-20T00:32:48.572Z,97.03
2023-07-20T00:37:54.382Z,97.26
2023-07-20T00:42:57.671Z,97.86
2023-07-20T00:48:01.039Z,98.44
2023-07-20T00:53:07.104Z,98.65
2023-07-20T00:58:10.229Z,98.32
2023-07-20T01:03:13.056Z,98.37
2023-07-20T01:08:21.013Z,98.39
2023-07-20T01:13:24.359Z,98.84
2023-07-20T01:18:29.188Z,99.30
2023-07-20T01:24:00.317Z,99.21
2023-07-20T01:29:25.235Z,98.94
2023-07-20T01:34:29.976Z,98.66
2023-07-20T01:39:33.735Z,98.94
2023-07-20T01:44:36.508Z,98.60
2023-07-20T01:49:40.708Z,98.17
2023-07-20T01:54:43.680Z,98.19
2023-07-20T01:59:46.465Z,98.06
2023-07-20T02:04:50.695Z,97.23
2023-07-20T02:09:54.070Z,97.25
2023-07-20T02:14:56.914Z,97.48
2023-07-20T02:20:01.022Z,97.71
2023-07-20T02:25:03.776Z,97.94
2023-07-20T02:30:07.860Z,98.20
2023-07-20T02:35:12.136Z,98.15
2023-07-20T02:40:15.927Z,97.46
2023-07-20T02:45:19.182Z,97.05
2023-07-20T02:50:24.276Z,97.79
2023-07-20T02:55:27.415Z,98.16
2023-07-20T03:00:30.195Z,98.57
2023-07-20T03:05:34.479Z,99.02
2023-07-20T03:10:41.288Z,99.42
2023-07-20T03:15:44.085Z,100.00
2023-07-20T03:20:49.775Z,100.00
2023-07-20T03:25:55.833Z,100.00
2023-07-20T03:30:59.961Z,100.00
2023-07-20T03:36:06.213Z,100.00
2023-07-20T03:41:09.076Z,100.00
2023-07-20T03:46:12.123Z,100.00
2023-07-20T03:51:16.768Z,99.39
2023-07-20T03:56:19.673Z,99.92
2023-07-20T04:01:22.663Z,99.69
2023-07-20T04:06:26.855Z,99.41
2023-07-20T04:11:29.643Z,100.00
2023-07-20T04:16:33.781Z,100.00
2023-07-20T04:21:41.845Z,100.00
2023-07-20T04:26:44.842Z,100.00
2023-07-20T04:31:47.862Z,100.00
2023-07-20T04:36:51.985Z,100.00
2023-07-20T04:41:55.266Z,100.00
2023-07-20T04:46:58.216Z,100.00
2023-07-20T04:52:03.721Z,100.00
2023-07-20T04:57:13.740Z,100.00
2023-07-20T05:02:21.666Z,100.00
2023-07-20T05:07:25.944Z,100.00
2023-07-20T05:12:28.749Z,100.00
2023-07-20T05:17:31.621Z,100.00
2023-07-20T05:22:36.238Z,100.00
2023-07-20T05:27:39.967Z,100.00
2023-07-20T05:32:42.843Z,100.00
2023-07-20T05:37:47.319Z,100.00
2023-07-20T05:42:53.126Z,100.00
2023-07-20T05:47:56.189Z,100.00
2023-07-20T05:53:00.372Z,100.00
2023-07-20T05:58:03.117Z,100.00
2023-07-20T06:03:05.941Z,100.00
2023-07-20T06:08:10.162Z,100.00
2023-07-20T06:13:13.082Z,100.00
2023-07-20T06:18:16.367Z,100.00
2023-07-20T06:23:20.617Z,99.50
2023-07-20T06:28:23.408Z,97.59
2023-07-20T06:33:26.188Z,94.82
2023-07-20T06:38:32.201Z,90.45
2023-07-20T06:53:48.886Z,79.97
2023-07-20T06:58:51.736Z,78.25
2023-07-20T07:03:56.159Z,77.52
2023-07-20T07:09:00.760Z,77.68
2023-07-20T07:14:03.598Z,76.87
2023-07-20T07:19:06.763Z,78.20
2023-07-20T07:24:11.082Z,76.30
2023-07-20T07:29:14.055Z,73.48
2023-07-20T07:34:16.893Z,72.84
2023-07-20T07:44:26.824Z,71.26
2023-07-20T07:49:30.228Z,71.06
2023-07-20T07:54:34.422Z,72.33
2023-07-20T07:59:38.851Z,73.36
2023-07-20T08:04:41.711Z,74.16
2023-07-20T08:09:46.559Z,74.56
2023-07-20T08:14:49.792Z,77.84
2023-07-20T08:19:52.608Z,75.30
2023-07-20T08:24:56.913Z,74.16
2023-07-20T08:30:00.669Z,74.02
2023-07-20T08:35:03.691Z,74.32
2023-07-20T08:40:10.376Z,73.85
2023-07-20T08:45:15.515Z,77.84
2023-07-20T08:50:18.691Z,85.33
2023-07-20T08:55:23.380Z,89.28
2023-07-20T09:00:27.786Z,91.69
2023-07-20T09:05:33.864Z,92.26
2023-07-20T09:10:39.064Z,88.61
2023-07-20T09:15:48.084Z,85.63
2023-07-20T09:20:51.069Z,82.07
2023-07-20T09:25:56.755Z,76.03
2023-07-20T09:30:59.784Z,74.41
2023-07-20T09:36:19.262Z,75.67
2023-07-20T09:51:49.513Z,75.38
2023-07-20T09:56:54.578Z,77.94
2023-07-20T10:02:00.873Z,77.82
2023-07-20T10:07:07.553Z,79.36
2023-07-20T10:12:17.340Z,83.91
2023-07-20T10:17:21.082Z,89.04
2023-07-20T10:22:27.846Z,94.48
2023-07-20T10:27:32.720Z,98.24
2023-07-20T10:32:35.930Z,96.58
2023-07-20T10:37:52.568Z,89.84
2023-07-20T10:43:03.364Z,87.89
2023-07-20T10:48:07.853Z,88.30
2023-07-20T10:53:18.760Z,88.06
2023-07-20T10:58:27.546Z,88.80
2023-07-20T11:03:34.740Z,85.55
2023-07-20T11:08:42.870Z,80.48
2023-07-20T11:13:58.278Z,75.45
2023-07-20T11:19:01.603Z,78.81
2023-07-20T11:24:06.371Z,79.35
2023-07-20T11:29:21.035Z,77.16
2023-07-20T11:34:34.383Z,76.38
2023-07-20T11:39:37.521Z,73.82
2023-07-20T11:44:41.889Z,71.84
2023-07-20T11:49:50.715Z,74.11
2023-07-20T11:54:54.903Z,73.46
2023-07-20T12:00:03.098Z,74.78
2023-07-20T12:05:09.555Z,74.35
2023-07-20T12:10:14.144Z,69.06
2023-07-20T12:15:21.585Z,70.49
2023-07-20T12:20:28.732Z,72.09
2023-07-20T12:25:41.268Z,68.08
2023-07-20T12:30:47.268Z,68.43
2023-07-20T12:35:50.463Z,68.72
2023-07-20T12:40:53.368Z,63.63
2023-07-20T12:45:58.407Z,60.70
2023-07-20T12:51:01.351Z,55.20
2023-07-20T12:57:12.837Z,52.61
2023-07-20T13:01:28.718Z,33.93
2023-07-20T13:06:31.761Z,22.06
2023-07-20T13:11:34.610Z,34.75
2023-07-20T13:16:38.921Z,36.63
2023-07-20T13:21:42.069Z,40.23
2023-07-20T13:26:44.952Z,43.44
2023-07-20T13:31:51.635Z,46.72
2023-07-20T13:36:54.917Z,48.39
2023-07-20T13:41:57.730Z,48.64
2023-07-20T13:57:16.296Z,48.74
2023-07-20T14:07:30.281Z,53.33
2023-07-20T14:12:33.435Z,52.52
2023-07-20T14:17:38.714Z,46.94
2023-07-20T14:22:42.926Z,47.70
2023-07-20T14:27:45.881Z,48.79
2023-07-20T14:32:50.813Z,28.25
2023-07-20T14:37:53.868Z,24.37
2023-07-20T14:42:57.565Z,16.42
2023-07-20T14:48:01.848Z,11.07
2023-07-20T14:53:06.932Z,13.03
2023-07-20T14:58:10.078Z,11.39
2023-07-20T15:03:14.390Z,13.40
2023-07-20T15:08:17.405Z,12.14
2023-07-20T15:13:20.157Z,12.87
2023-07-20T15:18:37.467Z,14.68
2023-07-20T15:23:44.723Z,14.30
2023-07-20T15:28:47.837Z,12.83
2023-07-20T15:33:53.854Z,22.53
2023-07-20T15:38:56.696Z,29.28
2023-07-20T15:43:59.448Z,29.89
2023-07-20T15:49:04.647Z,24.55
2023-07-20T15:54:08.535Z,20.17
2023-07-20T15:59:12.579Z,22.66
2023-07-20T16:04:16.817Z,30.04
2023-07-20T16:09:19.628Z,30.86
2023-07-20T16:14:22.580Z,28.27
2023-07-20T16:19:29.587Z,28.29
2023-07-20T16:24:32.626Z,34.32
2023-07-20T16:29:35.512Z,33.05
2023-07-20T16:39:47.897Z,38.71
2023-07-20T16:44:52.018Z,36.04
2023-07-20T16:49:56.435Z,35.60
2023-07-20T16:54:59.404Z,36.61
2023-07-20T17:00:02.926Z,36.60
2023-07-20T17:05:10.810Z,35.37
2023-07-20T17:10:13.878Z,36.24
2023-07-20T17:15:17.318Z,37.84
2023-07-20T17:25:32.126Z,39.06
2023-07-20T17:30:35.534Z,39.43
2023-07-20T17:35:39.705Z,38.66
2023-07-20T17:40:43.665Z,39.57
2023-07-20T17:45:50.345Z,38.00
2023-07-20T17:50:56.206Z,38.05
2023-07-20T17:55:59.055Z,39.56
2023-07-20T18:01:02.069Z,38.64
2023-07-20T18:06:09.989Z,38.87
2023-07-20T18:11:12.758Z,40.97
2023-07-20T18:16:15.714Z,42.80
2023-07-20T18:21:19.932Z,43.60
2023-07-20T18:26:22.828Z,45.22
2023-07-20T18:31:25.997Z,44.70
2023-07-20T18:36:30.430Z,47.24
2023-07-20T18:41:33.256Z,49.10
2023-07-20T18:46:36.307Z,52.62
2023-07-20T18:51:40.551Z,56.05
2023-07-20T18:56:43.540Z,57.26
2023-07-20T19:01:48.541Z,58.52
2023-07-20T19:06:53.056Z,59.41
2023-07-20T19:11:55.965Z,60.57
2023-07-20T19:16:58.840Z,61.15
2023-07-20T19:22:02.957Z,63.08
2023-07-20T19:27:05.977Z,61.76
2023-07-20T19:32:09.443Z,63.26
2023-07-20T19:37:13.820Z,63.52
2023-07-20T19:42:16.761Z,65.74
2023-07-20T19:47:19.755Z,67.18
2023-07-20T19:52:23.943Z,67.89
2023-07-20T20:07:39.653Z,69.49
2023-07-20T20:12:42.476Z,71.08
2023-07-20T20:17:45.381Z,70.33
2023-07-20T20:22:49.661Z,71.81
2023-07-20T20:27:52.570Z,72.42
2023-07-20T20:32:55.524Z,73.69
2023-07-20T20:37:59.756Z,74.40
2023-07-20T20:43:02.561Z,75.05
2023-07-20T20:48:08.422Z,76.06
2023-07-20T20:53:13.562Z,76.94
2023-07-20T20:58:16.569Z,77.87
2023-07-20T21:03:19.309Z,78.07
2023-07-20T21:08:24.640Z,78.49
2023-07-20T21:13:27.770Z,79.38
2023-07-20T21:18:30.822Z,79.74
2023-07-20T21:23:38.083Z,80.31
2023-07-20T21:28:40.871Z,80.55
2023-07-20T21:33:43.707Z,81.11
2023-07-20T21:38:47.902Z,82.10
2023-07-20T21:43:50.642Z,82.66
2023-07-20T21:48:53.504Z,82.93
2023-07-20T21:53:57.644Z,83.30
2023-07-20T21:59:00.388Z,83.51
2023-07-20T22:04:03.523Z,84.01
2023-07-20T22:09:07.880Z,84.47
2023-07-20T22:14:10.939Z,84.32
2023-07-20T22:19:13.892Z,84.78
2023-07-20T22:24:18.347Z,84.62
2023-07-20T22:29:21.141Z,84.25
2023-07-20T22:34:24.038Z,84.40
2023-07-20T22:39:28.616Z,84.35
2023-07-20T22:44:31.703Z,84.68
2023-07-20T22:49:34.956Z,85.05
2023-07-20T22:54:39.318Z,85.41
2023-07-20T22:59:42.131Z,85.81
2023-07-20T23:04:45.363Z,86.00
2023-07-20T23:09:51.197Z,85.95
2023-07-20T23:14:53.909Z,86.15
2023-07-20T23:19:57.187Z,86.41
2023-07-20T23:25:01.761Z,86.76
2023-07-20T23:30:04.922Z,87.00
2023-07-20T23:35:09.418Z,87.11
2023-07-20T23:40:15.661Z,87.35
2023-07-20T23:45:19.408Z,87.75
2023-07-20T23:50:22.292Z,88.47
2023-07-20T23:55:29.365Z,88.42
